LKBC weather

CLOSED Bechyně Airport
Bechyně, South Bohemian Region, Czechia

Public forecast

Using degrees Celsius for public forecast. Weather courtesy of forecast.io.

METAR (pilot weather report)

Closest report is Václav Havel Airport Prague, 50.5 nm (93.6 km) N. Retrieved 2019/07/16 15:30 UTC (0 seconds ago):

LKPR 161530Z 33011KT CAVOK 21/09 Q1015 NOSIG

TAF (pilot weather forecast)

Closest forecast is Václav Havel Airport Prague, 50.5 nm (93.6 km) N. Retrieved 2019/07/16 12:06 UTC (3 hours ago):

TAF LKPR 161100Z 1612/1718 29008KT CAVOK TEMPO 1612/1619 34014G24KT 9999 SCT033 TEMPO 1702/1706 7000 SCT023 BECMG 1706/1708 35010KT 9999 SCT036 TEMPO 1712/1718 BKN023